Time;durP1;ratioP1;P1;durP2;ratioP2;P2;SDS_P1;SDS_P2;PMS_P1;PMS_P2;Temp;Humidity;BMP_temperature;BMP_pressure;BME280_temperature;BME280_humidity;BME280_pressure;Samples;Min_cycle;Max_cycle;Signal;HPM_P1;HPM_P2
2023/01/01 00:00:43;;;;;;;;;;;;;;;21.14;nan;100915.72;5040563;28;20371;-37
2023/01/01 00:03:08;;;;;;;;;;;;;;;21.16;nan;100927.09;5035068;28;19931;-36
2023/01/01 00:05:36;;;;;;;;;;;;;;;21.15;nan;100928.22;5041232;28;20302;-36
2023/01/01 00:08:02;;;;;;;;;;;;;;;21.17;nan;100936.06;5038420;28;21097;-37
2023/01/01 00:10:27;;;;;;;;;;;;;;;21.18;nan;100926.78;5037464;28;19920;-36
2023/01/01 00:12:53;;;;;;;;;;;;;;;21.15;nan;100928.22;5037654;28;19943;-36
2023/01/01 00:15:18;;;;;;;;;;;;;;;21.18;nan;100940.41;5039190;28;19921;-36
2023/01/01 00:17:43;;;;;;;;;;;;;;;21.19;nan;100940.09;5039838;28;19929;-36
2023/01/01 00:20:09;;;;;;;;;;;;;;;21.13;nan;100950.31;5042016;28;19927;-36
2023/01/01 00:22:35;;;;;;;;;;;;;;;21.18;nan;100937.66;5040301;28;19943;-36
2023/01/01 00:25:00;;;;;;;;;;;;;;;21.15;nan;100950.00;5040662;28;20055;-36
2023/01/01 00:27:26;;;;;;;;;;;;;;;21.12;nan;100947.91;5046393;28;19951;-36
2023/01/01 00:29:51;;;;;;;;;;;;;;;21.10;nan;100947.44;5044363;28;19935;-36
2023/01/01 00:32:16;;;;;;;;;;;;;;;21.10;nan;100958.31;5046567;28;20386;-36
2023/01/01 00:34:42;;;;;;;;;;;;;;;21.08;nan;100966.00;5040057;28;20007;-36
2023/01/01 00:37:07;;;;;;;;;;;;;;;21.09;nan;100962.97;5040907;28;19932;-36
2023/01/01 00:39:32;;;;;;;;;;;;;;;21.03;nan;100963.44;5041318;28;20395;-36
2023/01/01 00:41:58;;;;;;;;;;;;;;;21.03;nan;100969.69;5032613;28;20344;-36
2023/01/01 00:44:23;;;;;;;;;;;;;;;21.01;nan;100971.13;5043625;28;19924;-36
2023/01/01 00:46:49;;;;;;;;;;;;;;;21.02;nan;100957.19;5043898;28;19924;-36
2023/01/01 00:49:14;;;;;;;;;;;;;;;20.99;nan;100962.44;5045168;28;20408;-36
2023/01/01 00:51:39;;;;;;;;;;;;;;;20.98;nan;100977.16;5040873;28;19936;-36
2023/01/01 00:54:05;;;;;;;;;;;;;;;20.94;nan;100970.75;5044971;28;19923;-36
2023/01/01 00:56:30;;;;;;;;;;;;;;;20.94;nan;100962.56;5043628;28;20329;-37
2023/01/01 00:58:56;;;;;;;;;;;;;;;20.94;nan;100974.25;5040616;28;20402;-36
2023/01/01 01:01:21;;;;;;;;;;;;;;;20.94;nan;100976.97;5043050;28;20024;-36
2023/01/01 01:03:46;;;;;;;;;;;;;;;20.97;nan;100986.44;5042225;28;19921;-37
2023/01/01 01:06:14;;;;;;;;;;;;;;;20.96;nan;100988.38;5040097;28;19921;-36
2023/01/01 01:08:40;;;;;;;;;;;;;;;20.96;nan;100993.00;5042499;28;19921;-36
2023/01/01 01:11:07;;;;;;;;;;;;;;;20.98;nan;100996.22;5043584;28;19921;-36
2023/01/01 01:13:32;;;;;;;;;;;;;;;20.95;nan;101000.38;5039655;28;19917;-36
2023/01/01 01:15:58;;;;;;;;;;;;;;;20.99;nan;100995.13;5044158;28;19921;-36
2023/01/01 01:18:23;;;;;;;;;;;;;;;21.03;nan;100990.66;5040065;28;19920;-36
2023/01/01 01:20:52;;;;;;;;;;;;;;;21.11;nan;101006.25;5036486;28;19937;-37
2023/01/01 01:23:18;;;;;;;;;;;;;;;21.10;nan;101004.63;5043081;28;19927;-36
2023/01/01 01:25:44;;;;;;;;;;;;;;;21.07;nan;100997.09;5041719;28;19917;-36
2023/01/01 01:28:09;;;;;;;;;;;;;;;21.07;nan;101006.06;5040034;28;19927;-37
2023/01/01 01:30:38;;;;;;;;;;;;;;;21.06;nan;100995.50;5042566;28;20310;-36
2023/01/01 01:33:03;;;;;;;;;;;;;;;21.00;nan;101002.97;5039363;28;19963;-36
2023/01/01 01:35:28;;;;;;;;;;;;;;;21.00;nan;101007.63;5037446;28;20164;-37
2023/01/01 01:37:54;;;;;;;;;;;;;;;20.97;nan;100997.34;5035121;28;20383;-36
2023/01/01 01:40:20;;;;;;;;;;;;;;;20.94;nan;101006.16;5033477;28;19925;-36
2023/01/01 01:42:46;;;;;;;;;;;;;;;20.97;nan;101000.88;5035201;28;19931;-36
2023/01/01 01:45:11;;;;;;;;;;;;;;;20.94;nan;101014.31;5033709;28;19928;-36
2023/01/01 01:47:57;;;;;;;;;;;;;;;20.92;nan;101014.63;5037050;28;19920;-36
2023/01/01 01:50:30;;;;;;;;;;;;;;;20.96;nan;101015.59;5037092;28;19921;-36
2023/01/01 01:53:02;;;;;;;;;;;;;;;20.94;nan;101017.03;5041201;28;19925;-36
2023/01/01 01:55:29;;;;;;;;;;;;;;;20.93;nan;101010.78;5046340;28;20000;-36
2023/01/01 01:57:55;;;;;;;;;;;;;;;20.92;nan;101008.38;5040921;28;20390;-36
2023/01/01 02:00:21;;;;;;;;;;;;;;;20.89;nan;101014.44;5042350;28;19917;-36
2023/01/01 02:02:55;;;;;;;;;;;;;;;20.90;nan;101005.97;5039352;28;20114;-36
2023/01/01 02:05:21;;;;;;;;;;;;;;;20.88;nan;101015.56;5049885;28;20016;-37
2023/01/01 02:07:46;;;;;;;;;;;;;;;20.86;nan;100996.00;5044669;28;21486;-39
2023/01/01 02:10:12;;;;;;;;;;;;;;;20.84;nan;101006.41;5039869;28;19925;-36
2023/01/01 02:12:37;;;;;;;;;;;;;;;20.78;nan;101009.25;5041793;28;19929;-36
2023/01/01 02:15:03;;;;;;;;;;;;;;;20.76;nan;101002.50;5038113;28;20015;-36
2023/01/01 02:17:34;;;;;;;;;;;;;;;20.73;nan;101003.13;5036013;28;19921;-36
2023/01/01 02:20:00;;;;;;;;;;;;;;;20.68;nan;101006.78;5042345;28;19917;-36
2023/01/01 02:22:28;;;;;;;;;;;;;;;20.66;nan;101014.47;5034799;28;19932;-36
2023/01/01 02:25:20;;;;;;;;;;;;;;;20.71;nan;101027.94;5033320;28;20358;-36
2023/01/01 02:27:46;;;;;;;;;;;;;;;20.60;nan;101021.13;5037582;28;19932;-36
2023/01/01 02:30:11;;;;;;;;;;;;;;;20.63;nan;101019.69;5037079;28;20302;-36
2023/01/01 02:32:46;;;;;;;;;;;;;;;20.64;nan;101022.09;5034513;28;20494;-36
2023/01/01 02:35:34;;;;;;;;;;;;;;;20.64;nan;101038.44;5033798;28;19975;-36
2023/01/01 02:38:10;;;;;;;;;;;;;;;20.64;nan;101035.72;5033029;28;19925;-36
2023/01/01 02:40:39;;;;;;;;;;;;;;;20.58;nan;101036.16;5044653;28;19925;-36
2023/01/01 02:43:04;;;;;;;;;;;;;;;20.55;nan;101031.34;5045033;28;19929;-36
2023/01/01 02:45:30;;;;;;;;;;;;;;;20.56;nan;101027.50;5039934;28;20306;-36
2023/01/01 02:47:55;;;;;;;;;;;;;;;20.51;nan;101017.53;5042354;28;19970;-36
2023/01/01 02:50:23;;;;;;;;;;;;;;;20.48;nan;101029.06;5042447;28;19937;-36
2023/01/01 02:52:55;;;;;;;;;;;;;;;20.43;nan;101027.22;5045090;28;19916;-36
2023/01/01 02:55:23;;;;;;;;;;;;;;;20.46;nan;101028.53;5038303;28;20327;-36
2023/01/01 03:00:17;;;;;;;;;;;;;;;20.45;nan;101025.00;5040780;28;19917;-36
2023/01/01 03:00:46;;;;;;;;;;;;;;;20.49;nan;101020.56;5041856;28;19924;-36
2023/01/01 03:03:17;;;;;;;;;;;;;;;20.47;nan;101028.25;5039364;28;19931;-36
2023/01/01 03:08:37;;;;;;;;;;;;;;;20.58;nan;101007.03;5038340;28;20988;-36
2023/01/01 03:11:03;;;;;;;;;;;;;;;20.54;nan;101010.66;5041264;28;19982;-36
2023/01/01 03:13:37;;;;;;;;;;;;;;;20.55;nan;100998.66;5042106;28;19920;-36
2023/01/01 03:16:08;;;;;;;;;;;;;;;20.51;nan;100996.56;5044313;28;19925;-36
2023/01/01 03:18:41;;;;;;;;;;;;;;;20.52;nan;100986.50;5041548;28;19986;-36
2023/01/01 03:21:07;;;;;;;;;;;;;;;20.56;nan;100983.94;5038087;28;19937;-36
2023/01/01 03:23:34;;;;;;;;;;;;;;;20.55;nan;100985.88;5037249;28;19925;-36
2023/01/01 03:26:02;;;;;;;;;;;;;;;20.56;nan;100990.19;5038133;28;19935;-36
2023/01/01 03:28:30;;;;;;;;;;;;;;;20.58;nan;101001.56;5035838;28;20003;-36
2023/01/01 03:30:56;;;;;;;;;;;;;;;20.55;nan;101010.38;5041111;28;20097;-36
2023/01/01 03:33:24;;;;;;;;;;;;;;;20.59;nan;101005.91;5041645;28;19931;-36
2023/01/01 03:35:58;;;;;;;;;;;;;;;20.59;nan;101008.63;5043829;28;19917;-36
2023/01/01 03:38:36;;;;;;;;;;;;;;;20.60;nan;101014.88;5039636;28;20377;-36
2023/01/01 03:41:09;;;;;;;;;;;;;;;20.62;nan;101015.38;5037534;28;19917;-36
2023/01/01 03:43:41;;;;;;;;;;;;;;;20.63;nan;101006.88;5042509;28;19924;-36
2023/01/01 03:46:07;;;;;;;;;;;;;;;20.63;nan;101006.88;5042578;28;19925;-36
2023/01/01 03:48:54;;;;;;;;;;;;;;;20.66;nan;101025.34;5037796;28;19925;-36
2023/01/01 03:51:24;;;;;;;;;;;;;;;20.64;nan;101027.56;5039632;28;19963;-36
2023/01/01 03:53:51;;;;;;;;;;;;;;;20.68;nan;101038.66;5036430;28;20290;-36
2023/01/01 03:56:20;;;;;;;;;;;;;;;20.70;nan;101031.78;5043885;28;20283;-36
2023/01/01 03:58:51;;;;;;;;;;;;;;;20.59;nan;101035.84;5042326;28;20306;-36
2023/01/01 04:01:22;;;;;;;;;;;;;;;20.65;nan;101034.63;5046533;28;19917;-36
2023/01/01 04:03:49;;;;;;;;;;;;;;;20.65;nan;101050.97;5041644;28;20299;-36
2023/01/01 04:06:15;;;;;;;;;;;;;;;20.62;nan;101039.88;5039971;28;19921;-36
2023/01/01 04:08:40;;;;;;;;;;;;;;;20.67;nan;101050.66;5042466;28;20032;-36
2023/01/01 04:12:00;;;;;;;;;;;;;;;20.72;nan;101054.06;5038135;28;19921;-36
2023/01/01 04:13:54;;;;;;;;;;;;;;;20.65;nan;101050.16;5041257;28;19974;-36
2023/01/01 04:16:20;;;;;;;;;;;;;;;20.65;nan;101040.06;5038973;28;20701;-36
2023/01/01 04:18:45;;;;;;;;;;;;;;;20.68;nan;101038.66;5040040;28;19925;-36
2023/01/01 04:21:11;;;;;;;;;;;;;;;20.66;nan;101030.81;5040002;28;19921;-36
2023/01/01 04:23:36;;;;;;;;;;;;;;;20.63;nan;101053.16;5043686;28;19924;-36
2023/01/01 04:26:02;;;;;;;;;;;;;;;20.64;nan;101052.06;5037310;28;19924;-36
2023/01/01 04:28:27;;;;;;;;;;;;;;;20.64;nan;101048.53;5041535;28;20397;-36
2023/01/01 04:30:52;;;;;;;;;;;;;;;20.67;nan;101053.38;5038390;28;20307;-36
2023/01/01 04:33:18;;;;;;;;;;;;;;;20.62;nan;101072.53;5041301;28;19952;-36
2023/01/01 04:35:43;;;;;;;;;;;;;;;20.66;nan;101062.66;5040843;28;19920;-37
2023/01/01 04:38:11;;;;;;;;;;;;;;;20.61;nan;101066.28;5040069;28;20294;-36
2023/01/01 04:40:37;;;;;;;;;;;;;;;20.66;nan;101074.34;5039544;28;19982;-36
2023/01/01 04:43:02;;;;;;;;;;;;;;;20.69;nan;101072.94;5038804;28;19952;-36
2023/01/01 04:45:27;;;;;;;;;;;;;;;20.65;nan;101086.38;5039219;28;19979;-36
2023/01/01 04:47:53;;;;;;;;;;;;;;;20.68;nan;101074.84;5037955;28;19921;-36
2023/01/01 04:50:18;;;;;;;;;;;;;;;20.63;nan;101085.03;5042707;28;19920;-36
2023/01/01 04:52:43;;;;;;;;;;;;;;;20.62;nan;101084.22;5040103;28;20407;-36
2023/01/01 04:55:09;;;;;;;;;;;;;;;20.63;nan;101079.59;5042808;28;19969;-36
2023/01/01 04:57:34;;;;;;;;;;;;;;;20.60;nan;101085.66;5041737;28;20027;-36
2023/01/01 04:59:59;;;;;;;;;;;;;;;20.64;nan;101087.44;5042658;28;20523;-36
2023/01/01 05:02:25;;;;;;;;;;;;;;;20.61;nan;101088.06;5039139;28;19975;-36
2023/01/01 05:04:50;;;;;;;;;;;;;;;20.59;nan;101089.50;5044257;28;20047;-36
2023/01/01 05:07:15;;;;;;;;;;;;;;;20.61;nan;101101.69;5046494;28;19917;-36
2023/01/01 05:09:41;;;;;;;;;;;;;;;20.60;nan;101096.53;5041501;28;19962;-36
2023/01/01 05:12:06;;;;;;;;;;;;;;;20.57;nan;101091.72;5047816;28;19929;-36
2023/01/01 05:14:32;;;;;;;;;;;;;;;20.58;nan;101090.59;5048863;28;19960;-36
2023/01/01 05:16:57;;;;;;;;;;;;;;;20.56;nan;101090.91;5047075;28;19917;-36
2023/01/01 05:19:22;;;;;;;;;;;;;;;20.55;nan;101102.91;5047319;28;19916;-36
2023/01/01 05:21:48;;;;;;;;;;;;;;;20.56;nan;101090.91;5047289;28;19920;-36
2023/01/01 05:24:14;;;;;;;;;;;;;;;20.59;nan;101086.75;5047740;28;20011;-36
2023/01/01 05:26:41;;;;;;;;;;;;;;;20.60;nan;101102.00;5052964;28;19917;-36
2023/01/01 05:29:07;;;;;;;;;;;;;;;20.56;nan;101099.06;5053507;28;20309;-36
2023/01/01 05:31:33;;;;;;;;;;;;;;;20.58;nan;101102.28;5048253;28;20266;-36
2023/01/01 05:33:59;;;;;;;;;;;;;;;20.52;nan;101106.25;5044841;28;19917;-36
2023/01/01 05:36:29;;;;;;;;;;;;;;;20.55;nan;101100.19;5041848;28;19927;-36
2023/01/01 05:38:54;;;;;;;;;;;;;;;20.55;nan;101089.31;5047771;28;20003;-36
2023/01/01 05:41:20;;;;;;;;;;;;;;;20.55;nan;101089.31;5047012;28;20055;-36
2023/01/01 05:43:47;;;;;;;;;;;;;;;20.54;nan;101103.22;5046000;28;19936;-36
2023/01/01 05:46:17;;;;;;;;;;;;;;;20.54;nan;101097.78;5046501;28;20067;-36
2023/01/01 05:48:43;;;;;;;;;;;;;;;20.49;nan;101096.78;5045150;28;20011;-36
2023/01/01 05:51:10;;;;;;;;;;;;;;;20.54;nan;101095.84;5043940;28;19929;-36
2023/01/01 05:53:35;;;;;;;;;;;;;;;20.56;nan;101107.25;5044528;28;20359;-36
2023/01/01 05:56:01;;;;;;;;;;;;;;;20.56;nan;101090.91;5040367;28;20045;-36
2023/01/01 05:58:27;;;;;;;;;;;;;;;20.56;nan;101099.06;5044674;28;19913;-36
2023/01/01 06:00:53;;;;;;;;;;;;;;;20.55;nan;101100.19;5044236;28;19960;-36
2023/01/01 06:03:18;;;;;;;;;;;;;;;20.51;nan;101104.66;5045559;28;19963;-36
2023/01/01 06:05:43;;;;;;;;;;;;;;;20.50;nan;101092.16;5047204;28;19928;-36
2023/01/01 06:08:09;;;;;;;;;;;;;;;20.45;nan;101100.41;5044794;28;20367;-36
2023/01/01 06:10:34;;;;;;;;;;;;;;;20.54;nan;101103.22;5047283;28;19925;-36
2023/01/01 06:12:59;;;;;;;;;;;;;;;20.49;nan;101101.44;5044571;28;20401;-36
2023/01/01 06:15:25;;;;;;;;;;;;;;;20.57;nan;101092.53;5044958;28;20290;-36
2023/01/01 06:17:50;;;;;;;;;;;;;;;20.53;nan;101102.41;5043298;28;19921;-36
2023/01/01 06:20:16;;;;;;;;;;;;;;;20.53;nan;101107.88;5044517;28;19968;-37
2023/01/01 06:22:41;;;;;;;;;;;;;;;20.59;nan;101106.63;5044766;28;19971;-36
2023/01/01 06:25:07;;;;;;;;;;;;;;;20.62;nan;101106.00;5047214;28;19916;-36
2023/01/01 06:27:34;;;;;;;;;;;;;;;20.59;nan;101103.91;5045082;28;19920;-36
2023/01/01 06:29:59;;;;;;;;;;;;;;;20.57;nan;101116.22;5047100;28;19917;-36
2023/01/01 06:32:24;;;;;;;;;;;;;;;20.55;nan;101113.00;5040542;28;20201;-36
2023/01/01 06:34:50;;;;;;;;;;;;;;;20.55;nan;101113.00;5040446;28;20299;-36
2023/01/01 06:37:15;;;;;;;;;;;;;;;20.54;nan;101114.91;5044632;28;19962;-36
2023/01/01 06:39:40;;;;;;;;;;;;;;;20.54;nan;101117.63;5047131;28;19919;-36
2023/01/01 06:42:06;;;;;;;;;;;;;;;20.51;nan;101116.34;5045573;28;19931;-35
2023/01/01 06:44:31;;;;;;;;;;;;;;;20.52;nan;101122.59;5044221;28;19913;-35
2023/01/01 06:46:57;;;;;;;;;;;;;;;20.55;nan;101121.97;5047855;28;19916;-35
2023/01/01 06:49:22;;;;;;;;;;;;;;;20.56;nan;101107.25;5042952;28;19920;-36
2023/01/01 06:51:47;;;;;;;;;;;;;;;20.55;nan;101123.88;5045494;28;19924;-35
2023/01/01 06:54:13;;;;;;;;;;;;;;;20.55;nan;101138.31;5045978;28;19917;-35
2023/01/01 06:56:38;;;;;;;;;;;;;;;20.56;nan;101133.66;5046738;28;19943;-36
2023/01/01 06:59:04;;;;;;;;;;;;;;;20.51;nan;101137.31;5044015;28;20196;-36
2023/01/01 07:01:30;;;;;;;;;;;;;;;20.52;nan;101131.56;5045572;28;19955;-35
2023/01/01 07:03:56;;;;;;;;;;;;;;;20.52;nan;101117.13;5043001;28;19917;-36
2023/01/01 07:06:22;;;;;;;;;;;;;;;20.57;nan;101133.34;5038877;28;19923;-36
2023/01/01 07:08:48;;;;;;;;;;;;;;;20.55;nan;101145.66;5046842;28;19921;-36
2023/01/01 07:11:13;;;;;;;;;;;;;;;20.52;nan;101144.34;5039839;28;19921;-36
2023/01/01 07:13:38;;;;;;;;;;;;;;;20.56;nan;101156.25;5044977;28;19928;-35
2023/01/01 07:16:05;;;;;;;;;;;;;;;20.54;nan;101165.84;5043157;28;19920;-36
2023/01/01 07:18:31;;;;;;;;;;;;;;;20.51;nan;101178.94;5040757;28;20054;-36
2023/01/01 07:21:01;;;;;;;;;;;;;;;20.50;nan;101173.81;5038689;28;20395;-36
2023/01/01 07:23:27;;;;;;;;;;;;;;;20.50;nan;101168.34;5041195;28;19927;-36
2023/01/01 07:25:53;;;;;;;;;;;;;;;20.48;nan;101171.38;5044259;28;20049;-35
2023/01/01 07:28:19;;;;;;;;;;;;;;;20.45;nan;101182.06;5043771;28;20070;-35
2023/01/01 07:30:44;;;;;;;;;;;;;;;20.45;nan;101191.03;5038885;28;19928;-36
2023/01/01 07:33:17;;;;;;;;;;;;;;;20.46;nan;101200.00;5043109;28;20460;-35
2023/01/01 07:35:45;;;;;;;;;;;;;;;20.47;nan;101197.00;5041128;28;20276;-35
2023/01/01 07:38:11;;;;;;;;;;;;;;;20.37;nan;101204.50;5038952;28;20386;-36
2023/01/01 07:40:37;;;;;;;;;;;;;;;20.40;nan;101220.22;5037089;28;19920;-36
2023/01/01 07:43:03;;;;;;;;;;;;;;;20.37;nan;101224.38;5036397;28;19917;-36
2023/01/01 07:45:28;;;;;;;;;;;;;;;20.43;nan;101233.25;5038540;28;19928;-36
2023/01/01 07:47:55;;;;;;;;;;;;;;;20.41;nan;101214.53;5054503;22;19942;-36
2023/01/01 07:50:21;;;;;;;;;;;;;;;20.36;nan;101216.50;5042537;28;19975;-36
2023/01/01 07:52:46;;;;;;;;;;;;;;;20.35;nan;101209.47;5044308;28;19924;-36
2023/01/01 07:55:12;;;;;;;;;;;;;;;20.33;nan;101214.41;5041330;28;19925;-36
2023/01/01 07:57:38;;;;;;;;;;;;;;;20.34;nan;101210.56;5046331;28;19917;-36
2023/01/01 08:00:03;;;;;;;;;;;;;;;20.30;nan;101215.81;5039386;28;19917;-37
2023/01/01 08:02:29;;;;;;;;;;;;;;;20.31;nan;101228.31;5044318;28;20087;-36
2023/01/01 08:04:54;;;;;;;;;;;;;;;20.33;nan;101238.88;5045624;28;19971;-36
2023/01/01 08:07:19;;;;;;;;;;;;;;;20.27;nan;101245.50;5039870;28;20020;-36
2023/01/01 08:09:45;;;;;;;;;;;;;;;20.30;nan;101245.75;5045665;28;20008;-36
2023/01/01 08:12:10;;;;;;;;;;;;;;;20.24;nan;101244.22;5045428;28;19935;-36
2023/01/01 08:14:35;;;;;;;;;;;;;;;20.31;nan;101241.09;5048189;28;19945;-36
2023/01/01 08:17:01;;;;;;;;;;;;;;;20.26;nan;101243.91;5045571;28;19963;-36
2023/01/01 08:19:26;;;;;;;;;;;;;;;20.28;nan;101249.84;5044527;28;19960;-36
2023/01/01 08:21:51;;;;;;;;;;;;;;;20.21;nan;101247.53;5040702;28;20012;-36
2023/01/01 08:24:17;;;;;;;;;;;;;;;20.18;nan;101257.09;5043371;28;20003;-36
2023/01/01 08:26:42;;;;;;;;;;;;;;;20.20;nan;101267.69;5047298;28;19962;-35
2023/01/01 08:29:09;;;;;;;;;;;;;;;20.23;nan;101267.09;5039391;28;19921;-36
2023/01/01 08:31:34;;;;;;;;;;;;;;;20.22;nan;101270.91;5042396;28;19926;-36
2023/01/01 08:33:59;;;;;;;;;;;;;;;20.24;nan;101282.31;5043323;28;19936;-36
2023/01/01 08:36:24;;;;;;;;;;;;;;;20.23;nan;101276.06;5041726;28;19917;-36
2023/01/01 08:38:50;;;;;;;;;;;;;;;20.26;nan;101268.38;5042634;28;20031;-36
2023/01/01 08:41:15;;;;;;;;;;;;;;;20.23;nan;101270.59;5041886;28;20069;-36
2023/01/01 08:43:40;;;;;;;;;;;;;;;20.26;nan;101276.56;5039558;28;19916;-36
2023/01/01 08:46:06;;;;;;;;;;;;;;;20.22;nan;101265.47;5045274;28;20401;-35
2023/01/01 08:48:31;;;;;;;;;;;;;;;20.26;nan;101265.66;5046945;28;20293;-37
2023/01/01 08:51:00;;;;;;;;;;;;;;;20.31;nan;101277.28;5047323;28;20208;-36
2023/01/01 08:53:25;;;;;;;;;;;;;;;20.27;nan;101283.59;5045081;28;19921;-36
2023/01/01 08:55:57;;;;;;;;;;;;;;;20.25;nan;101291.28;5049343;28;19928;-36
2023/01/01 08:58:23;;;;;;;;;;;;;;;20.25;nan;101286.63;5046514;28;20007;-36
2023/01/01 09:00:48;;;;;;;;;;;;;;;20.26;nan;101290.16;5047670;28;20154;-36
2023/01/01 09:03:14;;;;;;;;;;;;;;;20.32;nan;101294.41;5046313;28;20283;-36
2023/01/01 09:05:44;;;;;;;;;;;;;;;20.35;nan;101293.81;5042504;28;20015;-36
2023/01/01 09:08:09;;;;;;;;;;;;;;;20.31;nan;101290.91;5040683;28;19927;-36
2023/01/01 09:10:35;;;;;;;;;;;;;;;20.33;nan;101301.47;5050623;28;19929;-36
2023/01/01 09:13:00;;;;;;;;;;;;;;;20.36;nan;101298.97;5043518;28;19931;-36
2023/01/01 09:15:25;;;;;;;;;;;;;;;20.37;nan;101310.66;5042713;28;20228;-36
2023/01/01 09:17:51;;;;;;;;;;;;;;;20.39;nan;101320.13;5044628;28;19954;-37
2023/01/01 09:20:16;;;;;;;;;;;;;;;20.43;nan;101332.06;5047935;28;19983;-36
2023/01/01 09:22:41;;;;;;;;;;;;;;;20.49;nan;101330.88;5045875;28;19917;-35
2023/01/01 09:25:07;;;;;;;;;;;;;;;20.52;nan;101329.47;5042613;28;19952;-36
2023/01/01 09:27:32;;;;;;;;;;;;;;;20.52;nan;101335.72;5049206;28;19924;-36
2023/01/01 09:29:58;;;;;;;;;;;;;;;20.58;nan;101339.13;5040944;28;19917;-36
2023/01/01 09:32:23;;;;;;;;;;;;;;;20.63;nan;101347.19;5042371;28;20307;-36
2023/01/01 09:34:50;;;;;;;;;;;;;;;20.65;nan;101349.66;5046880;28;19916;-36
2023/01/01 09:37:15;;;;;;;;;;;;;;;20.67;nan;101345.50;5044484;28;19928;-36
2023/01/01 09:39:40;;;;;;;;;;;;;;;20.75;nan;101355.69;5045502;28;19916;-36
2023/01/01 09:42:17;;;;;;;;;;;;;;;20.75;nan;101354.88;5047186;28;19929;-36
2023/01/01 09:44:57;;;;;;;;;;;;;;;20.84;nan;101358.53;5039215;28;19979;-37
2023/01/01 09:47:28;;;;;;;;;;;;;;;20.79;nan;101350.44;5047968;28;20326;-36
2023/01/01 09:49:55;;;;;;;;;;;;;;;20.81;nan;101349.03;5042238;28;19924;-36
2023/01/01 09:52:21;;;;;;;;;;;;;;;20.86;nan;101366.41;5042354;28;20318;-36
2023/01/01 09:54:50;;;;;;;;;;;;;;;20.90;nan;101362.75;5046993;28;19936;-37
2023/01/01 09:57:15;;;;;;;;;;;;;;;20.95;nan;101359.94;5050171;28;19980;-36
2023/01/01 09:59:41;;;;;;;;;;;;;;;20.97;nan;101355.00;5038451;28;19971;-36
2023/01/01 10:02:26;;;;;;;;;;;;;;;21.02;nan;101367.72;5038177;28;20394;-36
2023/01/01 10:05:10;;;;;;;;;;;;;;;21.04;nan;101360.84;5042075;28;19924;-36
2023/01/01 10:08:05;;;;;;;;;;;;;;;21.05;nan;101361.66;5039625;28;19965;-36
2023/01/01 10:10:39;;;;;;;;;;;;;;;21.08;nan;101364.59;5021883;28;19982;-36
2023/01/01 10:13:10;;;;;;;;;;;;;;;21.09;nan;101370.84;5036943;28;19921;-36
2023/01/01 10:15:38;;;;;;;;;;;;;;;21.05;nan;101372.56;5044134;28;19966;-36
2023/01/01 10:18:05;;;;;;;;;;;;;;;21.11;nan;101380.31;5044397;28;19956;-36
2023/01/01 10:20:35;;;;;;;;;;;;;;;21.18;nan;101379.91;5040274;28;20029;-36
2023/01/01 10:23:06;;;;;;;;;;;;;;;21.19;nan;101380.72;5042049;28;19960;-36
2023/01/01 10:25:32;;;;;;;;;;;;;;;21.17;nan;101378.28;5039505;28;19928;-36
2023/01/01 10:28:03;;;;;;;;;;;;;;;21.22;nan;101388.28;5041732;28;20418;-36
2023/01/01 10:30:29;;;;;;;;;;;;;;;21.28;nan;101382.47;5040401;28;20116;-36
2023/01/01 10:32:55;;;;;;;;;;;;;;;21.32;nan;101374.47;5041199;28;20361;-37
2023/01/01 10:35:29;;;;;;;;;;;;;;;21.29;nan;101396.91;5036873;28;20477;-36
2023/01/01 10:37:56;;;;;;;;;;;;;;;21.28;nan;101385.19;5037364;28;19948;-36
2023/01/01 10:40:25;;;;;;;;;;;;;;;21.28;nan;101384.38;5037316;28;20021;-36
2023/01/01 10:42:52;;;;;;;;;;;;;;;21.26;nan;101395.59;5038011;28;19928;-36
2023/01/01 10:45:22;;;;;;;;;;;;;;;21.34;nan;101399.50;5036069;28;19967;-36
2023/01/01 10:48:06;;;;;;;;;;;;;;;21.38;nan;101401.34;5038916;28;20405;-36
2023/01/01 10:50:46;;;;;;;;;;;;;;;21.26;nan;101392.84;5042059;28;20496;-36
2023/01/01 10:53:32;;;;;;;;;;;;;;;21.32;nan;101402.53;5042137;28;19932;-36
2023/01/01 10:56:03;;;;;;;;;;;;;;;21.34;nan;101402.22;5028169;28;19924;-36
2023/01/01 10:58:47;;;;;;;;;;;;;;;21.40;nan;101398.31;5038895;28;19917;-36
2023/01/01 11:01:16;;;;;;;;;;;;;;;21.39;nan;101402.94;5040302;28;19921;-36
2023/01/01 11:04:01;;;;;;;;;;;;;;;21.42;nan;101402.34;5042745;28;19917;-36
2023/01/01 11:06:36;;;;;;;;;;;;;;;21.47;nan;101395.16;5038604;28;20310;-36
2023/01/01 11:09:03;;;;;;;;;;;;;;;21.54;nan;101412.69;5041929;28;19944;-37
2023/01/01 11:11:35;;;;;;;;;;;;;;;21.50;nan;101406.25;5039650;28;20352;-36
2023/01/01 11:14:07;;;;;;;;;;;;;;;21.46;nan;101407.97;5043041;28;19921;-36
2023/01/01 11:16:37;;;;;;;;;;;;;;;21.52;nan;101416.84;5043696;28;19965;-36
2023/01/01 11:19:04;;;;;;;;;;;;;;;21.49;nan;101417.47;5041239;28;20333;-36
2023/01/01 11:21:29;;;;;;;;;;;;;;;21.50;nan;101424.53;5038744;28;19932;-36
2023/01/01 11:24:14;;;;;;;;;;;;;;;21.60;nan;101435.22;5044537;28;19925;-36
2023/01/01 11:26:39;;;;;;;;;;;;;;;21.58;nan;101432.00;5035561;28;19924;-36
2023/01/01 11:29:17;;;;;;;;;;;;;;;21.60;nan;101451.59;5042458;28;19921;-36
2023/01/01 11:31:46;;;;;;;;;;;;;;;21.59;nan;101448.06;5037735;28;19924;-37
2023/01/01 11:34:31;;;;;;;;;;;;;;;21.59;nan;101447.25;5041129;28;20412;-37
2023/01/01 11:37:15;;;;;;;;;;;;;;;21.59;nan;101428.97;5043065;28;20011;-36
2023/01/01 11:39:42;;;;;;;;;;;;;;;21.65;nan;101421.47;5039008;28;20374;-36
2023/01/01 11:42:07;;;;;;;;;;;;;;;21.60;nan;101427.84;5039478;28;20604;-36
2023/01/01 11:44:43;;;;;;;;;;;;;;;21.63;nan;101423.72;5039269;28;19956;-35
2023/01/01 11:47:29;;;;;;;;;;;;;;;21.65;nan;101425.00;5041259;28;19921;-36
2023/01/01 11:50:01;;;;;;;;;;;;;;;21.73;nan;101456.22;5042398;28;20480;-35
2023/01/01 11:52:33;;;;;;;;;;;;;;;21.74;nan;101452.38;5038448;28;19921;-35
2023/01/01 11:55:08;;;;;;;;;;;;;;;21.65;nan;101433.19;5035959;28;20015;-36
2023/01/01 11:57:34;;;;;;;;;;;;;;;21.72;nan;101449.13;5038159;28;19924;-36
2023/01/01 12:00:02;;;;;;;;;;;;;;;21.64;nan;101442.50;5037253;28;19925;-36
2023/01/01 12:02:40;;;;;;;;;;;;;;;21.62;nan;101438.47;5040062;28;19928;-36
2023/01/01 12:05:09;;;;;;;;;;;;;;;21.66;nan;101455.81;5038356;28;19922;-36
2023/01/01 12:07:37;;;;;;;;;;;;;;;21.77;nan;101462.69;5035259;28;20308;-36
2023/01/01 12:10:05;;;;;;;;;;;;;;;21.75;nan;101445.81;5033233;28;20340;-36
2023/01/01 12:12:37;;;;;;;;;;;;;;;21.70;nan;101457.63;5035311;28;19921;-36
2023/01/01 12:15:14;;;;;;;;;;;;;;;21.68;nan;101446.22;5037393;28;19932;-36
2023/01/01 12:17:43;;;;;;;;;;;;;;;21.67;nan;101454.69;5036129;28;19921;-36
2023/01/01 12:20:27;;;;;;;;;;;;;;;21.75;nan;101454.00;5036006;28;20362;-36
2023/01/01 12:22:57;;;;;;;;;;;;;;;21.72;nan;101451.84;5037819;28;19924;-36
2023/01/01 12:25:22;;;;;;;;;;;;;;;21.72;nan;101454.59;5042998;28;20345;-36
2023/01/01 12:27:53;;;;;;;;;;;;;;;21.75;nan;101454.00;5037451;28;19978;-36
2023/01/01 12:30:31;;;;;;;;;;;;;;;21.78;nan;101442.47;5042084;28;20051;-36
2023/01/01 12:33:16;;;;;;;;;;;;;;;21.79;nan;101452.25;5037636;28;19935;-36
2023/01/01 12:35:42;;;;;;;;;;;;;;;21.75;nan;101451.28;5041051;28;19921;-36
2023/01/01 12:38:10;;;;;;;;;;;;;;;21.78;nan;101453.38;5036282;28;19970;-36
2023/01/01 12:40:39;;;;;;;;;;;;;;;21.81;nan;101447.31;5040301;28;20382;-35
2023/01/01 12:43:09;;;;;;;;;;;;;;;21.80;nan;101448.41;5035456;28;19924;-36
2023/01/01 12:45:43;;;;;;;;;;;;;;;21.74;nan;101449.66;5042993;28;20014;-36
2023/01/01 12:48:18;;;;;;;;;;;;;;;21.73;nan;101456.22;5042682;28;19920;-36
2023/01/01 12:50:51;;;;;;;;;;;;;;;21.75;nan;101456.72;5041921;28;19936;-36
2023/01/01 12:53:45;;;;;;;;;;;;;;;21.77;nan;101454.50;5039545;28;19921;-36
2023/01/01 12:56:29;;;;;;;;;;;;;;;21.75;nan;101469.56;5019999;28;19924;-36
2023/01/01 12:59:00;;;;;;;;;;;;;;;21.80;nan;101475.69;5041780;28;19975;-36
2023/01/01 13:01:28;;;;;;;;;;;;;;;21.80;nan;101481.16;5041511;28;20287;-36
2023/01/01 13:03:54;;;;;;;;;;;;;;;21.78;nan;101488.03;5040702;28;19921;-36
2023/01/01 13:06:23;;;;;;;;;;;;;;;21.78;nan;101491.56;5042970;28;19974;-36